sensor_id;sensor_type;location;lat;lon;timestamp;pressure;altitude;pressure_sealevel;temperature;humidity
10720;BME280;5411;58.386;15.560;2023-04-26T00:01:37;99084.59;;;6.67;100.00
10720;BME280;5411;58.386;15.560;2023-04-26T00:04:06;99076.03;;;6.58;100.00
10720;BME280;5411;58.386;15.560;2023-04-26T00:06:35;99081.56;;;6.57;100.00
10720;BME280;5411;58.386;15.560;2023-04-26T00:09:04;99081.56;;;6.57;100.00
10720;BME280;5411;58.386;15.560;2023-04-26T00:11:32;99085.44;;;6.54;100.00
10720;BME280;5411;58.386;15.560;2023-04-26T00:14:01;99078.75;;;6.52;100.00
10720;BME280;5411;58.386;15.560;2023-04-26T00:16:29;99083.44;;;6.50;100.00
10720;BME280;5411;58.386;15.560;2023-04-26T00:19:00;99075.25;;;6.44;100.00
10720;BME280;5411;58.386;15.560;2023-04-26T00:21:28;99078.13;;;6.50;100.00
10720;BME280;5411;58.386;15.560;2023-04-26T00:23:57;99083.44;;;6.50;100.00
10720;BME280;5411;58.386;15.560;2023-04-26T00:26:25;99083.44;;;6.50;100.00
10720;BME280;5411;58.386;15.560;2023-04-26T00:28:54;99081.00;;;6.48;100.00
10720;BME280;5411;58.386;15.560;2023-04-26T00:31:22;99096.72;;;6.43;100.00
10720;BME280;5411;58.386;15.560;2023-04-26T00:33:50;99085.31;;;6.36;100.00
10720;BME280;5411;58.386;15.560;2023-04-26T00:36:20;99087.16;;;6.35;100.00
10720;BME280;5411;58.386;15.560;2023-04-26T00:38:49;99094.28;;;6.35;99.90
10720;BME280;5411;58.386;15.560;2023-04-26T00:41:20;99086.72;;;6.32;100.00
10720;BME280;5411;58.386;15.560;2023-04-26T00:43:50;99091.63;;;6.28;100.00
10720;BME280;5411;58.386;15.560;2023-04-26T00:46:19;99103.50;;;6.26;100.00
10720;BME280;5411;58.386;15.560;2023-04-26T00:48:48;99105.13;;;6.20;99.93
10720;BME280;5411;58.386;15.560;2023-04-26T00:51:16;99106.16;;;6.13;99.76
10720;BME280;5411;58.386;15.560;2023-04-26T00:53:46;99104.31;;;6.06;100.00
10720;BME280;5411;58.386;15.560;2023-04-26T00:56:15;99097.78;;;6.02;100.00
10720;BME280;5411;58.386;15.560;2023-04-26T00:58:44;99098.81;;;6.01;100.00
10720;BME280;5411;58.386;15.560;2023-04-26T01:01:15;99098.59;;;6.03;100.00
10720;BME280;5411;58.386;15.560;2023-04-26T01:03:55;99092.09;;;5.99;100.00
10720;BME280;5411;58.386;15.560;2023-04-26T01:06:24;99093.31;;;5.96;98.86
10720;BME280;5411;58.386;15.560;2023-04-26T01:08:59;99098.59;;;5.90;99.13
10720;BME280;5411;58.386;15.560;2023-04-26T01:11:30;99104.28;;;5.87;99.77
10720;BME280;5411;58.386;15.560;2023-04-26T01:13:59;99096.75;;;5.84;98.14
10720;BME280;5411;58.386;15.560;2023-04-26T01:16:28;99101.03;;;5.78;98.61
10720;BME280;5411;58.386;15.560;2023-04-26T01:18:57;99101.63;;;5.80;97.13
10720;BME280;5411;58.386;15.560;2023-04-26T01:21:25;99106.53;;;5.77;98.32
10720;BME280;5411;58.386;15.560;2023-04-26T01:23:55;99111.03;;;5.69;97.51
10720;BME280;5411;58.386;15.560;2023-04-26T01:26:23;99117.16;;;5.70;98.17
10720;BME280;5411;58.386;15.560;2023-04-26T01:28:53;99114.88;;;5.60;98.48
10720;BME280;5411;58.386;15.560;2023-04-26T01:31:21;99115.28;;;5.57;97.32
10720;BME280;5411;58.386;15.560;2023-04-26T01:33:49;99113.00;;;5.48;98.72
10720;BME280;5411;58.386;15.560;2023-04-26T01:36:18;99104.03;;;5.42;98.63
10720;BME280;5411;58.386;15.560;2023-04-26T01:38:46;99112.19;;;5.41;98.22
10720;BME280;5411;58.386;15.560;2023-04-26T01:41:16;99108.91;;;5.38;100.00
10720;BME280;5411;58.386;15.560;2023-04-26T01:43:44;99115.03;;;5.39;100.00
10720;BME280;5411;58.386;15.560;2023-04-26T01:46:15;99115.66;;;5.41;100.00
10720;BME280;5411;58.386;15.560;2023-04-26T01:48:43;99116.09;;;5.45;100.00
10720;BME280;5411;58.386;15.560;2023-04-26T01:51:12;99102.78;;;5.38;100.00
10720;BME280;5411;58.386;15.560;2023-04-26T01:53:41;99114.66;;;5.42;100.00
10720;BME280;5411;58.386;15.560;2023-04-26T01:56:09;99111.59;;;5.45;100.00
10720;BME280;5411;58.386;15.560;2023-04-26T01:58:39;99113.63;;;5.50;100.00
10720;BME280;5411;58.386;15.560;2023-04-26T02:01:10;99121.78;;;5.48;99.36
10720;BME280;5411;58.386;15.560;2023-04-26T02:03:39;99120.38;;;5.46;100.00
10720;BME280;5411;58.386;15.560;2023-04-26T02:06:08;99112.00;;;5.42;100.00
10720;BME280;5411;58.386;15.560;2023-04-26T02:08:36;99114.84;;;5.41;100.00
10720;BME280;5411;58.386;15.560;2023-04-26T02:11:04;99118.69;;;5.38;100.00
10720;BME280;5411;58.386;15.560;2023-04-26T02:13:32;99117.88;;;5.37;100.00
10720;BME280;5411;58.386;15.560;2023-04-26T02:16:04;99120.53;;;5.37;100.00
10720;BME280;5411;58.386;15.560;2023-04-26T02:18:36;99117.25;;;5.35;100.00
10720;BME280;5411;58.386;15.560;2023-04-26T02:21:06;99117.88;;;5.31;100.00
10720;BME280;5411;58.386;15.560;2023-04-26T02:23:35;99112.34;;;5.26;100.00
10720;BME280;5411;58.386;15.560;2023-04-26T02:26:03;99117.25;;;5.29;100.00
10720;BME280;5411;58.386;15.560;2023-04-26T02:28:32;99109.50;;;5.27;100.00
10720;BME280;5411;58.386;15.560;2023-04-26T02:31:01;99108.06;;;5.25;100.00
10720;BME280;5411;58.386;15.560;2023-04-26T02:33:31;99111.09;;;5.22;100.00
10720;BME280;5411;58.386;15.560;2023-04-26T02:36:01;99110.91;;;5.17;100.00
10720;BME280;5411;58.386;15.560;2023-04-26T02:38:32;99104.16;;;5.14;100.00
10720;BME280;5411;58.386;15.560;2023-04-26T02:41:02;99101.28;;;5.09;100.00
10720;BME280;5411;58.386;15.560;2023-04-26T02:43:31;99097.19;;;5.07;100.00
10720;BME280;5411;58.386;15.560;2023-04-26T02:45:59;99101.88;;;5.05;100.00
10720;BME280;5411;58.386;15.560;2023-04-26T02:48:31;99099.63;;;5.01;100.00
10720;BME280;5411;58.386;15.560;2023-04-26T02:50:59;99101.25;;;5.03;100.00
10720;BME280;5411;58.386;15.560;2023-04-26T02:53:28;99096.97;;;5.01;100.00
10720;BME280;5411;58.386;15.560;2023-04-26T02:55:56;99093.28;;;4.96;100.00
10720;BME280;5411;58.386;15.560;2023-04-26T02:58:26;99102.25;;;4.95;100.00
10720;BME280;5411;58.386;15.560;2023-04-26T03:00:56;99097.38;;;4.98;100.00
10720;BME280;5411;58.386;15.560;2023-04-26T03:03:31;99099.81;;;5.00;100.00
10720;BME280;5411;58.386;15.560;2023-04-26T03:05:59;99095.53;;;4.99;100.00
10720;BME280;5411;58.386;15.560;2023-04-26T03:08:28;99096.78;;;5.03;100.00
10720;BME280;5411;58.386;15.560;2023-04-26T03:10:58;99097.81;;;5.09;100.00
10720;BME280;5411;58.386;15.560;2023-04-26T03:13:29;99101.28;;;5.09;100.00
10720;BME280;5411;58.386;15.560;2023-04-26T03:16:00;99102.91;;;5.10;100.00
10720;BME280;5411;58.386;15.560;2023-04-26T03:18:28;99098.44;;;5.11;100.00
10720;BME280;5411;58.386;15.560;2023-04-26T03:20:58;99105.13;;;5.07;100.00
10720;BME280;5411;58.386;15.560;2023-04-26T03:23:27;99109.63;;;5.06;100.00
10720;BME280;5411;58.386;15.560;2023-04-26T03:25:55;99111.88;;;5.03;100.00
10720;BME280;5411;58.386;15.560;2023-04-26T03:28:24;99105.56;;;5.04;100.00
10720;BME280;5411;58.386;15.560;2023-04-26T03:30:52;99108.59;;;5.00;100.00
10720;BME280;5411;58.386;15.560;2023-04-26T03:33:21;99100.81;;;4.92;99.91
10720;BME280;5411;58.386;15.560;2023-04-26T03:35:50;99112.03;;;4.94;100.00
10720;BME280;5411;58.386;15.560;2023-04-26T03:38:23;99108.78;;;4.92;100.00
10720;BME280;5411;58.386;15.560;2023-04-26T03:40:55;99107.72;;;4.87;100.00
10720;BME280;5411;58.386;15.560;2023-04-26T03:43:26;99122.03;;;4.92;100.00
10720;BME280;5411;58.386;15.560;2023-04-26T03:45:54;99123.63;;;4.93;100.00
10720;BME280;5411;58.386;15.560;2023-04-26T03:48:23;99119.59;;;4.97;100.00
10720;BME280;5411;58.386;15.560;2023-04-26T03:50:54;99121.03;;;5.00;98.90
10720;BME280;5411;58.386;15.560;2023-04-26T03:53:24;99124.88;;;4.97;99.41
10720;BME280;5411;58.386;15.560;2023-04-26T03:55:52;99122.84;;;4.99;98.78
10720;BME280;5411;58.386;15.560;2023-04-26T03:58:21;99130.19;;;4.97;96.99
10720;BME280;5411;58.386;15.560;2023-04-26T04:00:49;99133.81;;;4.90;97.14
10720;BME280;5411;58.386;15.560;2023-04-26T04:03:19;99133.41;;;4.93;97.42
10720;BME280;5411;58.386;15.560;2023-04-26T04:05:48;99131.19;;;4.90;97.32
10720;BME280;5411;58.386;15.560;2023-04-26T04:08:17;99126.69;;;4.90;98.37
10720;BME280;5411;58.386;15.560;2023-04-26T04:10:49;99136.06;;;4.93;97.26
10720;BME280;5411;58.386;15.560;2023-04-26T04:13:19;99136.06;;;4.93;97.16
10720;BME280;5411;58.386;15.560;2023-04-26T04:15:47;99135.69;;;4.96;96.23
10720;BME280;5411;58.386;15.560;2023-04-26T04:18:15;99142.19;;;4.93;96.03
10720;BME280;5411;58.386;15.560;2023-04-26T04:20:44;99131.56;;;4.87;95.55
10720;BME280;5411;58.386;15.560;2023-04-26T04:23:13;99133.00;;;4.89;96.77
10720;BME280;5411;58.386;15.560;2023-04-26T04:25:41;99137.31;;;4.90;95.69
10720;BME280;5411;58.386;15.560;2023-04-26T04:28:11;99133.63;;;4.91;96.30
10720;BME280;5411;58.386;15.560;2023-04-26T04:30:40;99139.78;;;4.98;96.06
10720;BME280;5411;58.386;15.560;2023-04-26T04:33:09;99142.03;;;5.01;96.37
10720;BME280;5411;58.386;15.560;2023-04-26T04:35:39;99146.50;;;5.01;96.14
10720;BME280;5411;58.386;15.560;2023-04-26T04:38:08;99142.41;;;4.98;95.94
10720;BME280;5411;58.386;15.560;2023-04-26T04:40:36;99136.53;;;5.03;96.37
10720;BME280;5411;58.386;15.560;2023-04-26T04:43:05;99144.69;;;5.08;95.31
10720;BME280;5411;58.386;15.560;2023-04-26T04:45:42;99152.47;;;5.10;95.60
10720;BME280;5411;58.386;15.560;2023-04-26T04:48:11;99150.63;;;5.10;95.79
10720;BME280;5411;58.386;15.560;2023-04-26T04:50:39;99155.94;;;5.10;95.06
10720;BME280;5411;58.386;15.560;2023-04-26T04:53:07;99156.97;;;5.16;95.74
10720;BME280;5411;58.386;15.560;2023-04-26T04:55:38;99153.47;;;5.09;94.00
10720;BME280;5411;58.386;15.560;2023-04-26T04:58:10;99164.94;;;5.16;94.51
10720;BME280;5411;58.386;15.560;2023-04-26T05:00:43;99164.31;;;5.20;95.44
10720;BME280;5411;58.386;15.560;2023-04-26T05:03:13;99169.44;;;5.22;94.30
10720;BME280;5411;58.386;15.560;2023-04-26T05:05:49;99163.28;;;5.15;95.01
10720;BME280;5411;58.386;15.560;2023-04-26T05:08:17;99175.16;;;5.19;93.43
10720;BME280;5411;58.386;15.560;2023-04-26T05:10:46;99176.75;;;5.20;94.71
10720;BME280;5411;58.386;15.560;2023-04-26T05:13:14;99179.63;;;5.18;93.58
10720;BME280;5411;58.386;15.560;2023-04-26T05:15:45;99175.53;;;5.16;93.99
10720;BME280;5411;58.386;15.560;2023-04-26T05:18:14;99178.41;;;5.21;94.28
10720;BME280;5411;58.386;15.560;2023-04-26T05:20:42;99167.78;;;5.21;93.83
10720;BME280;5411;58.386;15.560;2023-04-26T05:23:15;99178.06;;;5.30;94.40
10720;BME280;5411;58.386;15.560;2023-04-26T05:25:43;99182.53;;;5.30;94.38
10720;BME280;5411;58.386;15.560;2023-04-26T05:28:12;99184.75;;;5.26;93.25
10720;BME280;5411;58.386;15.560;2023-04-26T05:30:46;99186.41;;;5.34;92.82
10720;BME280;5411;58.386;15.560;2023-04-26T05:33:19;99188.28;;;5.40;93.37
10720;BME280;5411;58.386;15.560;2023-04-26T05:35:48;99187.28;;;5.48;93.40
10720;BME280;5411;58.386;15.560;2023-04-26T05:38:18;99192.81;;;5.59;92.34
10720;BME280;5411;58.386;15.560;2023-04-26T05:40:49;99193.88;;;5.65;90.30
10720;BME280;5411;58.386;15.560;2023-04-26T05:43:18;99191.00;;;5.66;89.66
10720;BME280;5411;58.386;15.560;2023-04-26T05:45:51;99199.41;;;5.77;89.43
10720;BME280;5411;58.386;15.560;2023-04-26T05:48:22;99192.28;;;5.84;88.88
10720;BME280;5411;58.386;15.560;2023-04-26T05:50:50;99189.22;;;5.87;89.08
10720;BME280;5411;58.386;15.560;2023-04-26T05:53:19;99192.94;;;5.92;88.63
10720;BME280;5411;58.386;15.560;2023-04-26T05:55:47;99189.50;;;5.98;89.35
10720;BME280;5411;58.386;15.560;2023-04-26T05:58:16;99199.50;;;6.10;88.10
10720;BME280;5411;58.386;15.560;2023-04-26T06:00:44;99201.97;;;6.11;87.85
10720;BME280;5411;58.386;15.560;2023-04-26T06:03:13;99198.03;;;6.00;86.59
10720;BME280;5411;58.386;15.560;2023-04-26T06:05:43;99193.34;;;6.02;88.20
10720;BME280;5411;58.386;15.560;2023-04-26T06:08:12;99189.69;;;6.17;88.41
10720;BME280;5411;58.386;15.560;2023-04-26T06:10:40;99199.91;;;6.33;85.56
10720;BME280;5411;58.386;15.560;2023-04-26T06:13:09;99195.03;;;6.36;83.80
10720;BME280;5411;58.386;15.560;2023-04-26T06:15:37;99209.53;;;6.34;84.38
10720;BME280;5411;58.386;15.560;2023-04-26T06:18:06;99202.78;;;6.18;85.25
10720;BME280;5411;58.386;15.560;2023-04-26T06:20:34;99210.34;;;6.21;84.06
10720;BME280;5411;58.386;15.560;2023-04-26T06:23:04;99212.78;;;6.29;83.45
10720;BME280;5411;58.386;15.560;2023-04-26T06:25:33;99201.16;;;6.24;83.67
10720;BME280;5411;58.386;15.560;2023-04-26T06:28:03;99210.34;;;6.41;84.12
10720;BME280;5411;58.386;15.560;2023-04-26T06:30:31;99210.75;;;6.44;82.58
10720;BME280;5411;58.386;15.560;2023-04-26T06:32:59;99216.06;;;6.38;82.45
10720;BME280;5411;58.386;15.560;2023-04-26T06:35:28;99208.31;;;6.50;83.80
10720;BME280;5411;58.386;15.560;2023-04-26T06:37:57;99214.81;;;6.67;82.29
10720;BME280;5411;58.386;15.560;2023-04-26T06:40:27;99223.81;;;6.66;81.23
10720;BME280;5411;58.386;15.560;2023-04-26T06:42:55;99220.16;;;6.60;79.78
10720;BME280;5411;58.386;15.560;2023-04-26T06:45:24;99216.47;;;6.41;80.89
10720;BME280;5411;58.386;15.560;2023-04-26T06:47:52;99215.44;;;6.16;81.54
10720;BME280;5411;58.386;15.560;2023-04-26T06:50:21;99208.06;;;6.05;80.76
10720;BME280;5411;58.386;15.560;2023-04-26T06:52:49;99219.50;;;5.99;81.75
10720;BME280;5411;58.386;15.560;2023-04-26T06:55:18;99208.88;;;6.05;80.96
10720;BME280;5411;58.386;15.560;2023-04-26T06:57:48;99215.81;;;6.13;81.17
10720;BME280;5411;58.386;15.560;2023-04-26T07:00:18;99218.94;;;6.36;82.15
10720;BME280;5411;58.386;15.560;2023-04-26T07:02:47;99216.88;;;6.58;81.69
10720;BME280;5411;58.386;15.560;2023-04-26T07:05:15;99208.91;;;6.71;80.15
10720;BME280;5411;58.386;15.560;2023-04-26T07:07:44;99206.81;;;6.80;78.64
10720;BME280;5411;58.386;15.560;2023-04-26T07:10:13;99209.72;;;6.78;80.49
10720;BME280;5411;58.386;15.560;2023-04-26T07:12:42;99211.50;;;6.98;81.43
10720;BME280;5411;58.386;15.560;2023-04-26T07:15:12;99204.56;;;7.03;81.66
10720;BME280;5411;58.386;15.560;2023-04-26T07:17:40;99211.69;;;7.16;78.92
10720;BME280;5411;58.386;15.560;2023-04-26T07:20:12;99220.69;;;7.15;76.72
10720;BME280;5411;58.386;15.560;2023-04-26T07:22:46;99217.66;;;6.98;78.27
10720;BME280;5411;58.386;15.560;2023-04-26T07:25:15;99220.34;;;6.92;78.08
10720;BME280;5411;58.386;15.560;2023-04-26T07:27:44;99218.66;;;6.97;78.52
10720;BME280;5411;58.386;15.560;2023-04-26T07:30:21;99213.72;;;7.07;78.39
10720;BME280;5411;58.386;15.560;2023-04-26T07:32:50;99220.03;;;7.20;75.47
10720;BME280;5411;58.386;15.560;2023-04-26T07:35:19;99219.22;;;7.19;75.42
10720;BME280;5411;58.386;15.560;2023-04-26T07:37:47;99219.63;;;7.29;77.31
10720;BME280;5411;58.386;15.560;2023-04-26T07:40:15;99213.66;;;7.34;76.35
10720;BME280;5411;58.386;15.560;2023-04-26T07:42:44;99227.38;;;7.31;75.90
10720;BME280;5411;58.386;15.560;2023-04-26T07:45:13;99223.91;;;7.24;76.42
10720;BME280;5411;58.386;15.560;2023-04-26T07:47:44;99223.72;;;7.32;74.46
10720;BME280;5411;58.386;15.560;2023-04-26T07:50:12;99220.81;;;7.33;73.72
10720;BME280;5411;58.386;15.560;2023-04-26T07:52:41;99216.72;;;7.37;74.39
10720;BME280;5411;58.386;15.560;2023-04-26T07:55:10;99220.34;;;7.49;73.59
10720;BME280;5411;58.386;15.560;2023-04-26T07:57:38;99218.91;;;7.47;70.58
10720;BME280;5411;58.386;15.560;2023-04-26T08:00:08;99211.53;;;7.49;70.91
10720;BME280;5411;58.386;15.560;2023-04-26T08:02:37;99220.13;;;7.58;70.16
10720;BME280;5411;58.386;15.560;2023-04-26T08:05:13;99219.25;;;7.64;70.07
10720;BME280;5411;58.386;15.560;2023-04-26T08:07:42;99217.97;;;7.73;69.19
10720;BME280;5411;58.386;15.560;2023-04-26T08:10:10;99216.13;;;7.80;68.66
10720;BME280;5411;58.386;15.560;2023-04-26T08:12:40;99218.56;;;7.81;68.54
10720;BME280;5411;58.386;15.560;2023-04-26T08:15:10;99215.81;;;7.95;67.96
10720;BME280;5411;58.386;15.560;2023-04-26T08:17:38;99217.63;;;8.01;67.99
10720;BME280;5411;58.386;15.560;2023-04-26T08:20:08;99222.72;;;8.09;68.87
10720;BME280;5411;58.386;15.560;2023-04-26T08:22:40;99215.47;;;8.16;68.98
10720;BME280;5411;58.386;15.560;2023-04-26T08:25:09;99219.56;;;8.18;66.60
10720;BME280;5411;58.386;15.560;2023-04-26T08:27:40;99211.28;;;8.27;65.73
10720;BME280;5411;58.386;15.560;2023-04-26T08:30:11;99213.69;;;8.41;66.22
10720;BME280;5411;58.386;15.560;2023-04-26T08:32:39;99220.81;;;8.47;64.28
10720;BME280;5411;58.386;15.560;2023-04-26T08:35:08;99225.25;;;8.53;64.01
10720;BME280;5411;58.386;15.560;2023-04-26T08:37:39;99230.84;;;8.52;62.78
10720;BME280;5411;58.386;15.560;2023-04-26T08:40:08;99222.28;;;8.43;63.44
10720;BME280;5411;58.386;15.560;2023-04-26T08:42:39;99223.16;;;8.31;64.65
10720;BME280;5411;58.386;15.560;2023-04-26T08:45:10;99230.34;;;8.30;65.12
10720;BME280;5411;58.386;15.560;2023-04-26T08:47:42;99226.56;;;8.44;66.14
10720;BME280;5411;58.386;15.560;2023-04-26T08:50:13;99225.75;;;8.44;65.73
10720;BME280;5411;58.386;15.560;2023-04-26T08:52:43;99230.97;;;8.57;65.54
10720;BME280;5411;58.386;15.560;2023-04-26T08:55:15;99224.84;;;8.56;63.84
10720;BME280;5411;58.386;15.560;2023-04-26T08:57:45;99232.78;;;8.63;64.67
10720;BME280;5411;58.386;15.560;2023-04-26T09:00:15;99229.63;;;8.73;64.62
10720;BME280;5411;58.386;15.560;2023-04-26T09:02:48;99221.13;;;8.82;63.47
10720;BME280;5411;58.386;15.560;2023-04-26T09:05:18;99232.84;;;9.00;65.37
10720;BME280;5411;58.386;15.560;2023-04-26T09:07:55;99229.63;;;9.16;61.29
10720;BME280;5411;58.386;15.560;2023-04-26T09:10:24;99233.19;;;9.28;62.31
10720;BME280;5411;58.386;15.560;2023-04-26T09:12:54;99242.28;;;9.39;62.11
10720;BME280;5411;58.386;15.560;2023-04-26T09:15:25;99243.03;;;9.46;62.07
10720;BME280;5411;58.386;15.560;2023-04-26T09:17:54;99239.09;;;9.48;61.60
10720;BME280;5411;58.386;15.560;2023-04-26T09:20:24;99246.81;;;9.38;59.80
10720;BME280;5411;58.386;15.560;2023-04-26T09:23:04;99233.41;;;9.45;59.94
10720;BME280;5411;58.386;15.560;2023-04-26T09:25:33;99244.16;;;9.56;58.94
10720;BME280;5411;58.386;15.560;2023-04-26T09:28:03;99235.47;;;9.43;58.97
10720;BME280;5411;58.386;15.560;2023-04-26T09:30:37;99238.28;;;9.48;57.80
10720;BME280;5411;58.386;15.560;2023-04-26T09:33:06;99245.47;;;9.65;58.11
10720;BME280;5411;58.386;15.560;2023-04-26T09:35:36;99249.13;;;9.71;56.15
10720;BME280;5411;58.386;15.560;2023-04-26T09:38:07;99235.28;;;9.74;55.41
10720;BME280;5411;58.386;15.560;2023-04-26T09:40:41;99240.34;;;9.64;55.70
10720;BME280;5411;58.386;15.560;2023-04-26T09:43:10;99231.84;;;9.85;55.19
10720;BME280;5411;58.386;15.560;2023-04-26T09:45:47;99230.69;;;10.11;55.02
10720;BME280;5411;58.386;15.560;2023-04-26T09:48:18;99229.00;;;10.28;53.77
10720;BME280;5411;58.386;15.560;2023-04-26T09:50:51;99224.50;;;10.52;53.94
10720;BME280;5411;58.386;15.560;2023-04-26T09:53:29;99243.75;;;10.84;53.69
10720;BME280;5411;58.386;15.560;2023-04-26T09:56:11;99236.06;;;10.99;50.00
10720;BME280;5411;58.386;15.560;2023-04-26T09:58:58;99249.47;;;10.88;50.18
10720;BME280;5411;58.386;15.560;2023-04-26T10:01:34;99240.47;;;10.59;50.67
10720;BME280;5411;58.386;15.560;2023-04-26T10:04:02;99241.84;;;10.50;51.60
10720;BME280;5411;58.386;15.560;2023-04-26T10:06:32;99242.31;;;10.58;49.92
10720;BME280;5411;58.386;15.560;2023-04-26T10:09:02;99238.16;;;10.62;52.33
10720;BME280;5411;58.386;15.560;2023-04-26T10:11:36;99246.28;;;10.67;50.29
10720;BME280;5411;58.386;15.560;2023-04-26T10:14:06;99240.00;;;10.62;50.75
10720;BME280;5411;58.386;15.560;2023-04-26T10:16:36;99243.50;;;10.51;51.66
10720;BME280;5411;58.386;15.560;2023-04-26T10:19:05;99241.41;;;10.64;50.15
10720;BME280;5411;58.386;15.560;2023-04-26T10:21:36;99251.63;;;10.56;48.76
10720;BME280;5411;58.386;15.560;2023-04-26T10:24:09;99251.44;;;10.27;47.36
10720;BME280;5411;58.386;15.560;2023-04-26T10:26:50;99248.34;;;10.12;48.76
10720;BME280;5411;58.386;15.560;2023-04-26T10:29:21;99261.34;;;10.09;48.72
10720;BME280;5411;58.386;15.560;2023-04-26T10:32:12;99245.59;;;10.19;47.80
10720;BME280;5411;58.386;15.560;2023-04-26T10:34:46;99261.47;;;10.44;48.33
10720;BME280;5411;58.386;15.560;2023-04-26T10:37:34;99253.38;;;10.62;47.43
10720;BME280;5411;58.386;15.560;2023-04-26T10:40:29;99262.13;;;10.81;47.78
10720;BME280;5411;58.386;15.560;2023-04-26T10:43:27;99253.53;;;10.90;48.17
10720;BME280;5411;58.386;15.560;2023-04-26T10:45:56;99255.41;;;10.78;46.11
10720;BME280;5411;58.386;15.560;2023-04-26T10:48:28;99261.06;;;10.70;47.40
10720;BME280;5411;58.386;15.560;2023-04-26T10:51:07;99248.59;;;10.52;47.86
10720;BME280;5411;58.386;15.560;2023-04-26T10:53:57;99262.66;;;10.48;49.66
10720;BME280;5411;58.386;15.560;2023-04-26T10:56:55;99266.34;;;10.35;48.74
10720;BME280;5411;58.386;15.560;2023-04-26T10:59:24;99254.38;;;10.08;47.35
10720;BME280;5411;58.386;15.560;2023-04-26T11:01:59;99269.25;;;9.85;48.52
10720;BME280;5411;58.386;15.560;2023-04-26T11:04:52;99270.66;;;9.88;48.75
10720;BME280;5411;58.386;15.560;2023-04-26T11:07:35;99269.50;;;9.84;48.45
10720;BME280;5411;58.386;15.560;2023-04-26T11:10:07;99268.69;;;9.83;48.10
10720;BME280;5411;58.386;15.560;2023-04-26T11:12:40;99270.00;;;9.92;47.62
10720;BME280;5411;58.386;15.560;2023-04-26T11:15:11;99275.75;;;10.08;47.53
10720;BME280;5411;58.386;15.560;2023-04-26T11:17:42;99271.34;;;10.31;46.77
10720;BME280;5411;58.386;15.560;2023-04-26T11:20:15;99288.09;;;10.39;45.80
10720;BME280;5411;58.386;15.560;2023-04-26T11:22:43;99279.22;;;10.26;46.98
10720;BME280;5411;58.386;15.560;2023-04-26T11:25:12;99286.56;;;10.31;46.88
10720;BME280;5411;58.386;15.560;2023-04-26T11:27:44;99282.00;;;10.20;47.41
10720;BME280;5411;58.386;15.560;2023-04-26T11:30:13;99293.06;;;10.23;47.21
10720;BME280;5411;58.386;15.560;2023-04-26T11:32:41;99294.56;;;10.31;48.24
10720;BME280;5411;58.386;15.560;2023-04-26T11:35:14;99297.47;;;10.29;48.17
10720;BME280;5411;58.386;15.560;2023-04-26T11:37:44;99303.75;;;10.23;48.32
10720;BME280;5411;58.386;15.560;2023-04-26T11:40:16;99303.59;;;10.18;48.49
10720;BME280;5411;58.386;15.560;2023-04-26T11:42:46;99311.38;;;10.20;47.41
10720;BME280;5411;58.386;15.560;2023-04-26T11:45:15;99313.03;;;10.21;48.06
10720;BME280;5411;58.386;15.560;2023-04-26T11:47:44;99302.22;;;10.27;47.37
10720;BME280;5411;58.386;15.560;2023-04-26T11:50:13;99304.94;;;10.39;48.07
10720;BME280;5411;58.386;15.560;2023-04-26T11:52:44;99308.38;;;10.58;48.06
10720;BME280;5411;58.386;15.560;2023-04-26T11:55:12;99306.28;;;10.60;47.17
10720;BME280;5411;58.386;15.560;2023-04-26T11:57:40;99312.66;;;10.47;45.92
10720;BME280;5411;58.386;15.560;2023-04-26T12:00:14;99325.34;;;10.52;47.05
10720;BME280;5411;58.386;15.560;2023-04-26T12:02:46;99319.31;;;10.56;46.27
10720;BME280;5411;58.386;15.560;2023-04-26T12:05:22;99324.66;;;10.56;47.64
10720;BME280;5411;58.386;15.560;2023-04-26T12:07:51;99324.88;;;10.55;47.04
10720;BME280;5411;58.386;15.560;2023-04-26T12:10:24;99327.44;;;10.50;45.13
10720;BME280;5411;58.386;15.560;2023-04-26T12:12:54;99316.16;;;10.48;44.90
10720;BME280;5411;58.386;15.560;2023-04-26T12:15:30;99326.72;;;10.54;45.68
10720;BME280;5411;58.386;15.560;2023-04-26T12:18:04;99330.69;;;10.52;45.74
10720;BME280;5411;58.386;15.560;2023-04-26T12:20:36;99319.94;;;10.40;46.67
10720;BME280;5411;58.386;15.560;2023-04-26T12:23:07;99342.06;;;10.47;47.02
10720;BME280;5411;58.386;15.560;2023-04-26T12:25:39;99332.81;;;10.61;46.40
10720;BME280;5411;58.386;15.560;2023-04-26T12:28:09;99346.19;;;10.61;45.38
10720;BME280;5411;58.386;15.560;2023-04-26T12:30:41;99338.81;;;10.45;46.13
10720;BME280;5411;58.386;15.560;2023-04-26T12:33:11;99335.34;;;10.56;47.07
10720;BME280;5411;58.386;15.560;2023-04-26T12:35:45;99332.03;;;10.73;46.62
10720;BME280;5411;58.386;15.560;2023-04-26T12:38:16;99328.31;;;10.85;46.62
10720;BME280;5411;58.386;15.560;2023-04-26T12:40:45;99339.41;;;10.89;44.76
10720;BME280;5411;58.386;15.560;2023-04-26T12:43:14;99337.31;;;10.91;44.80
10720;BME280;5411;58.386;15.560;2023-04-26T12:45:44;99349.59;;;10.80;44.30
10720;BME280;5411;58.386;15.560;2023-04-26T12:48:16;99355.50;;;10.70;45.31
10720;BME280;5411;58.386;15.560;2023-04-26T12:50:44;99350.03;;;10.65;44.29
10720;BME280;5411;58.386;15.560;2023-04-26T12:53:13;99345.38;;;10.61;45.18
10720;BME280;5411;58.386;15.560;2023-04-26T12:55:41;99340.13;;;10.66;44.88
10720;BME280;5411;58.386;15.560;2023-04-26T12:58:11;99344.72;;;10.77;45.00
10720;BME280;5411;58.386;15.560;2023-04-26T13:00:39;99348.00;;;10.91;43.77
10720;BME280;5411;58.386;15.560;2023-04-26T13:03:12;99342.75;;;10.84;43.49
10720;BME280;5411;58.386;15.560;2023-04-26T13:05:41;99362.81;;;11.05;44.15
10720;BME280;5411;58.386;15.560;2023-04-26T13:08:10;99348.63;;;11.04;44.23
10720;BME280;5411;58.386;15.560;2023-04-26T13:10:38;99352.03;;;10.82;42.99
10720;BME280;5411;58.386;15.560;2023-04-26T13:13:07;99355.38;;;10.65;44.16
10720;BME280;5411;58.386;15.560;2023-04-26T13:15:36;99361.66;;;10.59;45.15
10720;BME280;5411;58.386;15.560;2023-04-26T13:18:04;99361.16;;;10.51;46.68
10720;BME280;5411;58.386;15.560;2023-04-26T13:20:35;99357.91;;;10.49;47.49
10720;BME280;5411;58.386;15.560;2023-04-26T13:23:03;99372.97;;;10.43;48.22